sensor_id;sensor_type;location;lat;lon;timestamp;pressure;altitude;pressure_sealevel;temperature;humidity
31331;BME280;34067;39.548;-76.088;2024-01-15T00:01:04;101931.90;;;-3.56;27.88
31331;BME280;34067;39.548;-76.088;2024-01-15T00:03:32;101932.80;;;-4.43;28.37
31331;BME280;34067;39.548;-76.088;2024-01-15T00:06:00;101935.33;;;-4.27;28.45
31331;BME280;34067;39.548;-76.088;2024-01-15T00:08:27;101945.49;;;-3.42;27.87
31331;BME280;34067;39.548;-76.088;2024-01-15T00:10:55;101948.73;;;-3.83;27.52
31331;BME280;34067;39.548;-76.088;2024-01-15T00:13:22;101942.92;;;-3.02;27.12
31331;BME280;34067;39.548;-76.088;2024-01-15T00:15:50;101948.54;;;-3.35;27.33
31331;BME280;34067;39.548;-76.088;2024-01-15T00:18:18;101951.14;;;-3.31;27.41
31331;BME280;34067;39.548;-76.088;2024-01-15T00:20:45;101970.42;;;-2.62;26.84
31331;BME280;34067;39.548;-76.088;2024-01-15T00:23:14;101969.11;;;-2.95;27.67
31331;BME280;34067;39.548;-76.088;2024-01-15T00:25:42;101967.57;;;-1.72;26.68
31331;BME280;34067;39.548;-76.088;2024-01-15T00:28:09;101972.37;;;-1.37;28.02
31331;BME280;34067;39.548;-76.088;2024-01-15T00:30:37;101983.29;;;-2.76;26.99
31331;BME280;34067;39.548;-76.088;2024-01-15T00:33:05;101981.66;;;-2.29;26.97
31331;BME280;34067;39.548;-76.088;2024-01-15T00:35:32;101981.56;;;-2.94;27.07
31331;BME280;34067;39.548;-76.088;2024-01-15T00:38:00;101987.09;;;-2.67;29.24
31331;BME280;34067;39.548;-76.088;2024-01-15T00:40:27;101987.47;;;-2.13;27.15
31331;BME280;34067;39.548;-76.088;2024-01-15T00:42:55;101981.85;;;-3.49;28.25
31331;BME280;34067;39.548;-76.088;2024-01-15T00:45:23;101994.55;;;-3.33;28.00
31331;BME280;34067;39.548;-76.088;2024-01-15T00:47:50;101994.38;;;-2.69;28.39
31331;BME280;34067;39.548;-76.088;2024-01-15T00:50:18;102004.35;;;-2.41;27.92
31331;BME280;34067;39.548;-76.088;2024-01-15T00:52:45;102003.94;;;-3.20;27.88
31331;BME280;34067;39.548;-76.088;2024-01-15T00:55:13;102024.15;;;-3.86;28.57
31331;BME280;34067;39.548;-76.088;2024-01-15T00:57:41;102014.59;;;-2.22;28.17
31331;BME280;34067;39.548;-76.088;2024-01-15T01:00:10;102019.28;;;-1.68;28.02
31331;BME280;34067;39.548;-76.088;2024-01-15T01:02:38;102031.32;;;-2.37;28.07
31331;BME280;34067;39.548;-76.088;2024-01-15T01:05:06;102042.10;;;-2.64;27.78
31331;BME280;34067;39.548;-76.088;2024-01-15T01:07:34;102043.64;;;-1.80;27.56
31331;BME280;34067;39.548;-76.088;2024-01-15T01:10:02;102044.22;;;-3.14;28.44
31331;BME280;34067;39.548;-76.088;2024-01-15T01:12:29;102044.48;;;-2.92;28.27
31331;BME280;34067;39.548;-76.088;2024-01-15T01:14:57;102039.71;;;-3.06;28.67
31331;BME280;34067;39.548;-76.088;2024-01-15T01:17:25;102040.98;;;-3.14;28.55
31331;BME280;34067;39.548;-76.088;2024-01-15T01:19:53;102049.19;;;-3.21;29.08
31331;BME280;34067;39.548;-76.088;2024-01-15T01:22:21;102059.29;;;-2.86;29.01
31331;BME280;34067;39.548;-76.088;2024-01-15T01:24:48;102079.60;;;-3.65;29.40
31331;BME280;34067;39.548;-76.088;2024-01-15T01:27:16;102073.49;;;-3.18;28.84
31331;BME280;34067;39.548;-76.088;2024-01-15T01:29:44;102079.26;;;-1.90;27.95
31331;BME280;34067;39.548;-76.088;2024-01-15T01:32:12;102077.82;;;-2.32;27.56
31331;BME280;34067;39.548;-76.088;2024-01-15T01:34:41;102072.60;;;-1.10;27.58
31331;BME280;34067;39.548;-76.088;2024-01-15T01:37:09;102083.08;;;-1.40;27.84
31331;BME280;34067;39.548;-76.088;2024-01-15T01:39:37;102085.78;;;-1.21;26.91
31331;BME280;34067;39.548;-76.088;2024-01-15T01:42:06;102085.43;;;-2.24;27.10
31331;BME280;34067;39.548;-76.088;2024-01-15T01:44:35;102077.08;;;-2.57;27.88
31331;BME280;34067;39.548;-76.088;2024-01-15T01:47:04;102072.85;;;-1.09;27.42
31331;BME280;34067;39.548;-76.088;2024-01-15T01:49:34;102077.06;;;-1.61;27.21
31331;BME280;34067;39.548;-76.088;2024-01-15T01:52:04;102077.08;;;-1.86;27.91
31331;BME280;34067;39.548;-76.088;2024-01-15T01:54:34;102083.11;;;-2.30;27.70
31331;BME280;34067;39.548;-76.088;2024-01-15T01:57:04;102084.95;;;-1.33;27.18
31331;BME280;34067;39.548;-76.088;2024-01-15T01:59:34;102089.75;;;-1.58;27.35
31331;BME280;34067;39.548;-76.088;2024-01-15T02:02:03;102089.89;;;-1.28;27.03
31331;BME280;34067;39.548;-76.088;2024-01-15T02:04:32;102083.41;;;-1.60;26.96
31331;BME280;34067;39.548;-76.088;2024-01-15T02:07:01;102082.65;;;-2.00;26.46
31331;BME280;34067;39.548;-76.088;2024-01-15T02:09:30;102084.36;;;-1.51;26.84
31331;BME280;34067;39.548;-76.088;2024-01-15T02:11:58;102076.87;;;-2.36;26.98
31331;BME280;34067;39.548;-76.088;2024-01-15T02:14:27;102067.43;;;-2.58;28.25
31331;BME280;34067;39.548;-76.088;2024-01-15T02:16:57;102068.45;;;-3.30;27.88
31331;BME280;34067;39.548;-76.088;2024-01-15T02:19:25;102070.53;;;-3.18;28.34
31331;BME280;34067;39.548;-76.088;2024-01-15T02:21:54;102070.08;;;-2.34;27.76
31331;BME280;34067;39.548;-76.088;2024-01-15T02:24:22;102076.69;;;-4.09;28.19
31331;BME280;34067;39.548;-76.088;2024-01-15T02:26:51;102070.68;;;-3.10;27.85
31331;BME280;34067;39.548;-76.088;2024-01-15T02:29:21;102067.68;;;-2.76;27.71
31331;BME280;34067;39.548;-76.088;2024-01-15T02:31:50;102080.03;;;-2.90;27.46
31331;BME280;34067;39.548;-76.088;2024-01-15T02:34:19;102080.35;;;-2.94;27.71
31331;BME280;34067;39.548;-76.088;2024-01-15T02:36:47;102083.00;;;-2.90;27.44
31331;BME280;34067;39.548;-76.088;2024-01-15T02:39:15;102083.91;;;-2.90;27.35
31331;BME280;34067;39.548;-76.088;2024-01-15T02:41:44;102084.65;;;-2.35;26.98
31331;BME280;34067;39.548;-76.088;2024-01-15T02:44:12;102086.88;;;-1.44;26.74
31331;BME280;34067;39.548;-76.088;2024-01-15T02:46:41;102098.74;;;-2.32;26.48
31331;BME280;34067;39.548;-76.088;2024-01-15T02:49:10;102101.93;;;-1.78;26.59
31331;BME280;34067;39.548;-76.088;2024-01-15T02:51:38;102105.85;;;-1.59;26.37
31331;BME280;34067;39.548;-76.088;2024-01-15T02:54:07;102112.90;;;-1.52;26.42
31331;BME280;34067;39.548;-76.088;2024-01-15T02:56:36;102112.20;;;-1.72;26.31
31331;BME280;34067;39.548;-76.088;2024-01-15T02:59:05;102110.61;;;-1.39;26.38
31331;BME280;34067;39.548;-76.088;2024-01-15T03:01:34;102109.38;;;-0.90;25.93
31331;BME280;34067;39.548;-76.088;2024-01-15T03:04:01;102106.76;;;-1.20;26.56
31331;BME280;34067;39.548;-76.088;2024-01-15T03:06:29;102097.18;;;-1.35;26.31
31331;BME280;34067;39.548;-76.088;2024-01-15T03:08:58;102091.69;;;-1.46;25.72
31331;BME280;34067;39.548;-76.088;2024-01-15T03:11:27;102085.75;;;-1.15;25.66
31331;BME280;34067;39.548;-76.088;2024-01-15T03:13:55;102086.92;;;-1.57;25.71
31331;BME280;34067;39.548;-76.088;2024-01-15T03:16:24;102090.70;;;-0.90;25.90
31331;BME280;34067;39.548;-76.088;2024-01-15T03:18:52;102095.46;;;-1.16;25.68
31331;BME280;34067;39.548;-76.088;2024-01-15T03:21:19;102095.40;;;-2.26;26.00
31331;BME280;34067;39.548;-76.088;2024-01-15T03:23:47;102098.18;;;-1.65;26.21
31331;BME280;34067;39.548;-76.088;2024-01-15T03:26:15;102107.37;;;-1.56;25.82
31331;BME280;34067;39.548;-76.088;2024-01-15T03:28:43;102119.88;;;-3.10;25.95
31331;BME280;34067;39.548;-76.088;2024-01-15T03:31:10;102124.41;;;-1.74;26.82
31331;BME280;34067;39.548;-76.088;2024-01-15T03:33:38;102131.35;;;-1.82;26.41
31331;BME280;34067;39.548;-76.088;2024-01-15T03:36:06;102139.68;;;-1.18;26.45
31331;BME280;34067;39.548;-76.088;2024-01-15T03:38:34;102144.61;;;-2.61;26.80
31331;BME280;34067;39.548;-76.088;2024-01-15T03:41:02;102146.53;;;-2.03;26.26
31331;BME280;34067;39.548;-76.088;2024-01-15T03:43:30;102140.06;;;-1.95;26.63
31331;BME280;34067;39.548;-76.088;2024-01-15T03:45:57;102139.18;;;-2.12;26.66
31331;BME280;34067;39.548;-76.088;2024-01-15T03:48:25;102131.96;;;-1.54;26.51
31331;BME280;34067;39.548;-76.088;2024-01-15T03:50:53;102141.71;;;-1.93;26.22
31331;BME280;34067;39.548;-76.088;2024-01-15T03:53:20;102147.07;;;-2.58;26.65
31331;BME280;34067;39.548;-76.088;2024-01-15T03:55:48;102150.62;;;-2.14;26.91
31331;BME280;34067;39.548;-76.088;2024-01-15T03:58:16;102153.48;;;-2.24;26.73
31331;BME280;34067;39.548;-76.088;2024-01-15T04:00:44;102157.39;;;-1.89;25.96
31331;BME280;34067;39.548;-76.088;2024-01-15T04:03:12;102162.80;;;-1.59;25.89
31331;BME280;34067;39.548;-76.088;2024-01-15T04:05:40;102169.26;;;-2.27;25.93
31331;BME280;34067;39.548;-76.088;2024-01-15T04:08:07;102183.29;;;-3.43;26.28
31331;BME280;34067;39.548;-76.088;2024-01-15T04:10:35;102192.47;;;-3.32;26.79
31331;BME280;34067;39.548;-76.088;2024-01-15T04:13:03;102197.96;;;-2.64;27.37
31331;BME280;34067;39.548;-76.088;2024-01-15T04:15:30;102195.26;;;-2.55;26.80
31331;BME280;34067;39.548;-76.088;2024-01-15T04:17:58;102199.61;;;-2.89;26.73
31331;BME280;34067;39.548;-76.088;2024-01-15T04:20:26;102204.88;;;-2.89;26.46
31331;BME280;34067;39.548;-76.088;2024-01-15T04:22:53;102207.08;;;-2.98;26.49
31331;BME280;34067;39.548;-76.088;2024-01-15T04:25:21;102213.21;;;-3.13;26.92
31331;BME280;34067;39.548;-76.088;2024-01-15T04:27:49;102210.08;;;-2.85;26.89
31331;BME280;34067;39.548;-76.088;2024-01-15T04:30:17;102213.88;;;-2.41;26.54
31331;BME280;34067;39.548;-76.088;2024-01-15T04:32:44;102224.98;;;-2.37;26.46
31331;BME280;34067;39.548;-76.088;2024-01-15T04:35:12;102222.83;;;-2.83;26.46
31331;BME280;34067;39.548;-76.088;2024-01-15T04:37:40;102219.12;;;-2.48;26.58
31331;BME280;34067;39.548;-76.088;2024-01-15T04:40:09;102224.57;;;-1.93;26.43
31331;BME280;34067;39.548;-76.088;2024-01-15T04:42:37;102222.86;;;-2.30;26.44
31331;BME280;34067;39.548;-76.088;2024-01-15T04:45:05;102237.37;;;-3.20;26.50
31331;BME280;34067;39.548;-76.088;2024-01-15T04:47:33;102239.30;;;-2.96;26.56
31331;BME280;34067;39.548;-76.088;2024-01-15T04:50:01;102242.20;;;-1.67;26.24
31331;BME280;34067;39.548;-76.088;2024-01-15T04:52:28;102239.64;;;-1.44;26.03
31331;BME280;34067;39.548;-76.088;2024-01-15T04:54:56;102235.29;;;-2.16;26.43
31331;BME280;34067;39.548;-76.088;2024-01-15T04:57:24;102226.58;;;-1.77;26.37
31331;BME280;34067;39.548;-76.088;2024-01-15T04:59:51;102237.55;;;-3.48;26.66
31331;BME280;34067;39.548;-76.088;2024-01-15T05:02:19;102238.15;;;-3.61;26.85
31331;BME280;34067;39.548;-76.088;2024-01-15T05:04:47;102242.66;;;-3.49;27.08
31331;BME280;34067;39.548;-76.088;2024-01-15T05:07:14;102231.27;;;-3.21;27.05
31331;BME280;34067;39.548;-76.088;2024-01-15T05:09:42;102227.59;;;-3.82;27.43
31331;BME280;34067;39.548;-76.088;2024-01-15T05:12:10;102233.69;;;-3.77;27.08
31331;BME280;34067;39.548;-76.088;2024-01-15T05:14:38;102229.86;;;-3.12;27.21
31331;BME280;34067;39.548;-76.088;2024-01-15T05:17:05;102237.89;;;-2.56;26.90
31331;BME280;34067;39.548;-76.088;2024-01-15T05:19:33;102244.31;;;-2.63;27.04
31331;BME280;34067;39.548;-76.088;2024-01-15T05:22:01;102240.45;;;-2.53;26.25
31331;BME280;34067;39.548;-76.088;2024-01-15T05:24:28;102229.34;;;-2.89;26.86
31331;BME280;34067;39.548;-76.088;2024-01-15T05:26:56;102218.97;;;-3.87;26.84
31331;BME280;34067;39.548;-76.088;2024-01-15T05:29:24;102221.46;;;-2.99;26.61
31331;BME280;34067;39.548;-76.088;2024-01-15T05:31:52;102218.66;;;-2.89;27.99
31331;BME280;34067;39.548;-76.088;2024-01-15T05:34:19;102227.54;;;-3.91;27.95
31331;BME280;34067;39.548;-76.088;2024-01-15T05:36:47;102222.64;;;-4.74;29.39
31331;BME280;34067;39.548;-76.088;2024-01-15T05:39:14;102224.96;;;-3.41;27.86
31331;BME280;34067;39.548;-76.088;2024-01-15T05:41:42;102218.44;;;-4.37;28.06
31331;BME280;34067;39.548;-76.088;2024-01-15T05:44:10;102217.72;;;-3.67;28.63
31331;BME280;34067;39.548;-76.088;2024-01-15T05:46:38;102219.55;;;-3.84;28.12
31331;BME280;34067;39.548;-76.088;2024-01-15T05:49:05;102217.22;;;-4.94;31.81
31331;BME280;34067;39.548;-76.088;2024-01-15T05:51:33;102222.48;;;-4.31;29.34
31331;BME280;34067;39.548;-76.088;2024-01-15T05:54:06;102214.99;;;-3.50;28.44
31331;BME280;34067;39.548;-76.088;2024-01-15T05:56:34;102222.15;;;-4.30;28.31
31331;BME280;34067;39.548;-76.088;2024-01-15T05:59:02;102214.48;;;-4.41;28.30
31331;BME280;34067;39.548;-76.088;2024-01-15T06:03:11;102212.07;;;-4.31;28.42
31331;BME280;34067;39.548;-76.088;2024-01-15T06:05:39;102197.65;;;-5.13;28.98
31331;BME280;34067;39.548;-76.088;2024-01-15T06:08:07;102185.04;;;-5.09;29.12
31331;BME280;34067;39.548;-76.088;2024-01-15T06:10:34;102190.74;;;-6.34;32.12
31331;BME280;34067;39.548;-76.088;2024-01-15T06:13:02;102188.04;;;-5.94;31.75
31331;BME280;34067;39.548;-76.088;2024-01-15T06:15:30;102165.18;;;-6.36;34.91
31331;BME280;34067;39.548;-76.088;2024-01-15T06:17:58;102188.98;;;-6.25;32.02
31331;BME280;34067;39.548;-76.088;2024-01-15T06:20:25;102195.03;;;-5.84;31.40
31331;BME280;34067;39.548;-76.088;2024-01-15T06:22:53;102191.67;;;-5.98;31.57
31331;BME280;34067;39.548;-76.088;2024-01-15T06:25:21;102206.71;;;-5.45;30.04
31331;BME280;34067;39.548;-76.088;2024-01-15T06:27:48;102222.05;;;-6.03;28.68
31331;BME280;34067;39.548;-76.088;2024-01-15T06:30:16;102223.98;;;-5.21;29.02
31331;BME280;34067;39.548;-76.088;2024-01-15T06:32:44;102233.57;;;-5.04;28.46
31331;BME280;34067;39.548;-76.088;2024-01-15T06:35:12;102236.67;;;-5.15;28.01
31331;BME280;34067;39.548;-76.088;2024-01-15T06:37:39;102232.21;;;-5.22;27.96
31331;BME280;34067;39.548;-76.088;2024-01-15T06:40:08;102218.89;;;-3.50;27.98
31331;BME280;34067;39.548;-76.088;2024-01-15T06:42:37;102220.20;;;-4.13;27.48
31331;BME280;34067;39.548;-76.088;2024-01-15T06:45:05;102233.53;;;-4.65;27.93
31331;BME280;34067;39.548;-76.088;2024-01-15T06:47:33;102249.84;;;-4.07;27.78
31331;BME280;34067;39.548;-76.088;2024-01-15T06:50:01;102254.61;;;-2.96;27.06
31331;BME280;34067;39.548;-76.088;2024-01-15T06:52:28;102259.55;;;-3.20;27.36
31331;BME280;34067;39.548;-76.088;2024-01-15T06:54:56;102261.28;;;-3.43;27.47
31331;BME280;34067;39.548;-76.088;2024-01-15T06:57:24;102272.62;;;-2.48;26.99
31331;BME280;34067;39.548;-76.088;2024-01-15T06:59:51;102292.35;;;-3.11;26.97
31331;BME280;34067;39.548;-76.088;2024-01-15T07:02:19;102288.35;;;-4.19;27.52
31331;BME280;34067;39.548;-76.088;2024-01-15T07:04:47;102282.39;;;-4.26;27.74
31331;BME280;34067;39.548;-76.088;2024-01-15T07:07:15;102294.70;;;-3.60;28.08
31331;BME280;34067;39.548;-76.088;2024-01-15T07:09:42;102295.14;;;-4.87;28.05
31331;BME280;34067;39.548;-76.088;2024-01-15T07:12:10;102302.31;;;-5.28;29.83
31331;BME280;34067;39.548;-76.088;2024-01-15T07:14:38;102298.76;;;-3.88;27.90
31331;BME280;34067;39.548;-76.088;2024-01-15T07:17:05;102310.32;;;-3.57;27.36
31331;BME280;34067;39.548;-76.088;2024-01-15T07:19:33;102310.74;;;-4.12;27.75
31331;BME280;34067;39.548;-76.088;2024-01-15T07:22:01;102300.93;;;-4.20;27.49
31331;BME280;34067;39.548;-76.088;2024-01-15T07:24:29;102305.04;;;-4.71;29.04
31331;BME280;34067;39.548;-76.088;2024-01-15T07:26:56;102309.94;;;-4.75;31.36
31331;BME280;34067;39.548;-76.088;2024-01-15T07:29:24;102300.40;;;-3.61;28.07
31331;BME280;34067;39.548;-76.088;2024-01-15T07:31:52;102295.41;;;-4.30;30.41
31331;BME280;34067;39.548;-76.088;2024-01-15T07:34:19;102296.16;;;-5.42;32.34
31331;BME280;34067;39.548;-76.088;2024-01-15T07:36:47;102302.74;;;-5.90;33.25
31331;BME280;34067;39.548;-76.088;2024-01-15T07:39:15;102307.59;;;-5.14;33.32
31331;BME280;34067;39.548;-76.088;2024-01-15T07:41:43;102303.08;;;-4.08;29.06
31331;BME280;34067;39.548;-76.088;2024-01-15T07:44:10;102309.75;;;-4.48;28.78
31331;BME280;34067;39.548;-76.088;2024-01-15T07:46:38;102324.25;;;-4.51;28.20
31331;BME280;34067;39.548;-76.088;2024-01-15T07:49:06;102325.98;;;-3.47;27.47
31331;BME280;34067;39.548;-76.088;2024-01-15T07:51:33;102335.97;;;-3.97;28.28
31331;BME280;34067;39.548;-76.088;2024-01-15T07:54:01;102349.15;;;-4.57;28.68
31331;BME280;34067;39.548;-76.088;2024-01-15T07:56:29;102351.17;;;-4.15;28.84
31331;BME280;34067;39.548;-76.088;2024-01-15T07:58:57;102344.31;;;-3.84;27.45
31331;BME280;34067;39.548;-76.088;2024-01-15T08:01:24;102345.43;;;-3.25;27.06
31331;BME280;34067;39.548;-76.088;2024-01-15T08:03:52;102343.21;;;-3.83;26.50
31331;BME280;34067;39.548;-76.088;2024-01-15T08:06:20;102348.31;;;-3.55;28.62
31331;BME280;34067;39.548;-76.088;2024-01-15T08:08:47;102340.66;;;-3.22;26.97
31331;BME280;34067;39.548;-76.088;2024-01-15T08:11:15;102349.15;;;-3.82;27.05
31331;BME280;34067;39.548;-76.088;2024-01-15T08:13:44;102350.58;;;-3.68;28.38
31331;BME280;34067;39.548;-76.088;2024-01-15T08:16:11;102348.54;;;-3.17;27.36
31331;BME280;34067;39.548;-76.088;2024-01-15T08:18:40;102357.62;;;-3.13;26.51
31331;BME280;34067;39.548;-76.088;2024-01-15T08:21:08;102361.07;;;-2.78;26.59
31331;BME280;34067;39.548;-76.088;2024-01-15T08:23:36;102358.77;;;-3.26;27.02
31331;BME280;34067;39.548;-76.088;2024-01-15T08:26:04;102359.66;;;-2.54;28.99
31331;BME280;34067;39.548;-76.088;2024-01-15T08:28:32;102361.56;;;-3.19;27.11
31331;BME280;34067;39.548;-76.088;2024-01-15T08:30:59;102358.00;;;-3.78;26.93
31331;BME280;34067;39.548;-76.088;2024-01-15T08:33:27;102356.62;;;-3.55;26.91
31331;BME280;34067;39.548;-76.088;2024-01-15T08:35:55;102353.86;;;-3.56;27.52
31331;BME280;34067;39.548;-76.088;2024-01-15T08:38:23;102357.63;;;-3.53;26.53
31331;BME280;34067;39.548;-76.088;2024-01-15T08:40:51;102362.36;;;-2.66;25.86
31331;BME280;34067;39.548;-76.088;2024-01-15T08:43:19;102364.21;;;-2.80;27.26
31331;BME280;34067;39.548;-76.088;2024-01-15T08:45:46;102377.69;;;-2.44;26.35
31331;BME280;34067;39.548;-76.088;2024-01-15T08:48:14;102382.37;;;-2.98;26.76
31331;BME280;34067;39.548;-76.088;2024-01-15T08:50:42;102389.17;;;-2.77;27.42
31331;BME280;34067;39.548;-76.088;2024-01-15T08:53:09;102385.69;;;-4.01;31.43
31331;BME280;34067;39.548;-76.088;2024-01-15T08:55:37;102388.39;;;-4.46;31.36
31331;BME280;34067;39.548;-76.088;2024-01-15T08:58:05;102402.06;;;-4.41;30.58
31331;BME280;34067;39.548;-76.088;2024-01-15T09:00:32;102401.47;;;-6.18;34.76
31331;BME280;34067;39.548;-76.088;2024-01-15T09:03:00;102404.81;;;-5.44;36.54
31331;BME280;34067;39.548;-76.088;2024-01-15T09:05:28;102399.02;;;-6.66;40.23
31331;BME280;34067;39.548;-76.088;2024-01-15T09:07:56;102404.45;;;-6.90;40.41
31331;BME280;34067;39.548;-76.088;2024-01-15T09:10:23;102405.68;;;-7.04;42.33
31331;BME280;34067;39.548;-76.088;2024-01-15T09:12:51;102409.60;;;-7.43;42.01
31331;BME280;34067;39.548;-76.088;2024-01-15T09:15:19;102406.53;;;-6.82;40.94
31331;BME280;34067;39.548;-76.088;2024-01-15T09:17:47;102407.06;;;-6.56;39.93
31331;BME280;34067;39.548;-76.088;2024-01-15T09:20:14;102402.72;;;-5.71;39.23
31331;BME280;34067;39.548;-76.088;2024-01-15T09:22:42;102405.61;;;-4.83;39.15
31331;BME280;34067;39.548;-76.088;2024-01-15T09:25:10;102401.23;;;-5.25;38.60
31331;BME280;34067;39.548;-76.088;2024-01-15T09:27:38;102405.12;;;-5.51;38.14
31331;BME280;34067;39.548;-76.088;2024-01-15T09:30:06;102411.62;;;-3.66;37.73
31331;BME280;34067;39.548;-76.088;2024-01-15T09:32:34;102413.75;;;-3.61;37.85
31331;BME280;34067;39.548;-76.088;2024-01-15T09:35:02;102426.89;;;-5.73;41.26
31331;BME280;34067;39.548;-76.088;2024-01-15T09:37:29;102419.48;;;-5.85;43.33
31331;BME280;34067;39.548;-76.088;2024-01-15T09:39:57;102422.65;;;-6.01;44.64
31331;BME280;34067;39.548;-76.088;2024-01-15T09:42:25;102415.37;;;-4.98;45.33
31331;BME280;34067;39.548;-76.088;2024-01-15T09:44:53;102414.75;;;-5.26;44.95
31331;BME280;34067;39.548;-76.088;2024-01-15T09:47:22;102422.97;;;-5.88;46.74
31331;BME280;34067;39.548;-76.088;2024-01-15T09:49:50;102421.04;;;-5.86;47.20
31331;BME280;34067;39.548;-76.088;2024-01-15T09:52:19;102421.31;;;-7.04;48.78
31331;BME280;34067;39.548;-76.088;2024-01-15T09:54:49;102415.20;;;-5.00;47.62
31331;BME280;34067;39.548;-76.088;2024-01-15T09:57:17;102409.21;;;-5.25;47.12
31331;BME280;34067;39.548;-76.088;2024-01-15T09:59:45;102406.65;;;-5.03;47.26
31331;BME280;34067;39.548;-76.088;2024-01-15T10:02:14;102401.28;;;-4.25;47.17
31331;BME280;34067;39.548;-76.088;2024-01-15T10:04:41;102407.17;;;-4.86;46.60
31331;BME280;34067;39.548;-76.088;2024-01-15T10:07:10;102410.44;;;-4.31;47.12
31331;BME280;34067;39.548;-76.088;2024-01-15T10:09:42;102416.44;;;-4.35;46.92
31331;BME280;34067;39.548;-76.088;2024-01-15T10:12:10;102417.80;;;-3.87;46.38
31331;BME280;34067;39.548;-76.088;2024-01-15T10:14:39;102417.18;;;-3.67;46.46
31331;BME280;34067;39.548;-76.088;2024-01-15T10:17:13;102410.27;;;-4.14;46.51
31331;BME280;34067;39.548;-76.088;2024-01-15T10:19:40;102403.81;;;-2.72;45.88
31331;BME280;34067;39.548;-76.088;2024-01-15T10:22:08;102399.72;;;-3.63;45.36
31331;BME280;34067;39.548;-76.088;2024-01-15T10:24:37;102400.35;;;-3.42;44.81
31331;BME280;34067;39.548;-76.088;2024-01-15T10:27:06;102405.68;;;-3.82;46.23
31331;BME280;34067;39.548;-76.088;2024-01-15T10:29:34;102404.35;;;-4.17;46.32
31331;BME280;34067;39.548;-76.088;2024-01-15T10:32:02;102393.29;;;-3.20;46.01
31331;BME280;34067;39.548;-76.088;2024-01-15T10:34:31;102392.49;;;-2.23;45.57
31331;BME280;34067;39.548;-76.088;2024-01-15T10:36:59;102389.03;;;-3.11;45.93
31331;BME280;34067;39.548;-76.088;2024-01-15T10:39:26;102390.02;;;-2.30;45.36
31331;BME280;34067;39.548;-76.088;2024-01-15T10:41:54;102399.10;;;-1.81;44.69
31331;BME280;34067;39.548;-76.088;2024-01-15T10:44:22;102399.27;;;-1.93;45.17
31331;BME280;34067;39.548;-76.088;2024-01-15T10:46:50;102395.85;;;-2.06;44.58
31331;BME280;34067;39.548;-76.088;2024-01-15T10:49:20;102404.31;;;-2.69;44.75
31331;BME280;34067;39.548;-76.088;2024-01-15T10:51:48;102405.37;;;-1.82;44.60
31331;BME280;34067;39.548;-76.088;2024-01-15T10:54:17;102400.31;;;-1.76;44.21
31331;BME280;34067;39.548;-76.088;2024-01-15T10:56:46;102396.25;;;-2.02;43.92
31331;BME280;34067;39.548;-76.088;2024-01-15T10:59:14;102399.51;;;-1.74;44.32
31331;BME280;34067;39.548;-76.088;2024-01-15T11:01:43;102398.73;;;-1.99;44.44
31331;BME280;34067;39.548;-76.088;2024-01-15T11:04:11;102394.26;;;-2.59;45.13
31331;BME280;34067;39.548;-76.088;2024-01-15T11:06:44;102400.11;;;-2.19;45.00
31331;BME280;34067;39.548;-76.088;2024-01-15T11:09:12;102401.91;;;-2.58;45.31
31331;BME280;34067;39.548;-76.088;2024-01-15T11:11:43;102407.57;;;-2.84;45.98
31331;BME280;34067;39.548;-76.088;2024-01-15T11:14:24;102404.97;;;-2.77;45.80
31331;BME280;34067;39.548;-76.088;2024-01-15T11:17:00;102403.22;;;-2.65;45.58
31331;BME280;34067;39.548;-76.088;2024-01-15T11:19:36;102403.74;;;-2.18;45.05
31331;BME280;34067;39.548;-76.088;2024-01-15T11:22:04;102405.70;;;-1.76;44.30
31331;BME280;34067;39.548;-76.088;2024-01-15T11:24:37;102402.54;;;-2.07;44.74
31331;BME280;34067;39.548;-76.088;2024-01-15T11:27:06;102407.29;;;-2.30;44.88
31331;BME280;34067;39.548;-76.088;2024-01-15T11:29:36;102401.42;;;-2.48;45.13
31331;BME280;34067;39.548;-76.088;2024-01-15T11:32:05;102409.12;;;-2.58;44.85
31331;BME280;34067;39.548;-76.088;2024-01-15T11:35:06;102417.06;;;-1.71;45.04
31331;BME280;34067;39.548;-76.088;2024-01-15T11:37:57;102420.23;;;-2.82;45.58
31331;BME280;34067;39.548;-76.088;2024-01-15T11:40:38;102421.54;;;-2.42;45.74
31331;BME280;34067;39.548;-76.088;2024-01-15T11:43:06;102422.43;;;-2.66;46.30
31331;BME280;34067;39.548;-76.088;2024-01-15T11:45:35;102429.37;;;-2.75;46.49
31331;BME280;34067;39.548;-76.088;2024-01-15T11:48:11;102428.13;;;-2.85;46.77
31331;BME280;34067;39.548;-76.088;2024-01-15T11:50:41;102429.95;;;-2.59;46.82
31331;BME280;34067;39.548;-76.088;2024-01-15T11:53:29;102425.60;;;-2.44;46.55
31331;BME280;34067;39.548;-76.088;2024-01-15T11:56:02;102424.69;;;-2.92;47.40
31331;BME280;34067;39.548;-76.088;2024-01-15T11:58:30;102423.40;;;-2.85;47.57
31331;BME280;34067;39.548;-76.088;2024-01-15T12:00:58;102422.83;;;-2.74;47.29
31331;BME280;34067;39.548;-76.088;2024-01-15T12:03:26;102420.54;;;-3.14;47.80
31331;BME280;34067;39.548;-76.088;2024-01-15T12:05:53;102420.71;;;-3.15;48.07
31331;BME280;34067;39.548;-76.088;2024-01-15T12:08:22;102418.67;;;-2.73;48.50
31331;BME280;34067;39.548;-76.088;2024-01-15T12:10:50;102416.43;;;-2.74;48.01
31331;BME280;34067;39.548;-76.088;2024-01-15T12:13:19;102414.04;;;-2.98;48.19
31331;BME280;34067;39.548;-76.088;2024-01-15T12:15:48;102402.93;;;-3.26;48.80
31331;BME280;34067;39.548;-76.088;2024-01-15T12:18:18;102407.05;;;-2.89;48.48
31331;BME280;34067;39.548;-76.088;2024-01-15T12:20:46;102414.03;;;-2.62;48.50
31331;BME280;34067;39.548;-76.088;2024-01-15T12:23:15;102417.56;;;-2.64;48.52
31331;BME280;34067;39.548;-76.088;2024-01-15T12:25:43;102427.92;;;-2.40;48.85
31331;BME280;34067;39.548;-76.088;2024-01-15T12:28:11;102421.19;;;-2.37;48.27
31331;BME280;34067;39.548;-76.088;2024-01-15T12:30:39;102426.64;;;-2.01;47.79
31331;BME280;34067;39.548;-76.088;2024-01-15T12:33:07;102428.02;;;-2.66;48.77
31331;BME280;34067;39.548;-76.088;2024-01-15T12:35:35;102421.89;;;-2.72;49.16
31331;BME280;34067;39.548;-76.088;2024-01-15T12:38:04;102410.51;;;-2.33;48.52